Time,TemperatureF,DewpointF,PressureIn,WindDirection,WindDirectionDegrees,WindSpeedMPH,WindSpeedGustMPH,Humidity,HourlyPrecipIn,Conditions,Clouds,dailyrainin,SoftwareType,DateUTC
2013-06-22 00:04:00,56.7,51.3,29.98,SSE,161,6.0,13.0,82,0.00,,,0.00,meteohub,2013-06-22 07:04:00,
2013-06-22 00:09:00,56.7,51.3,29.98,South,170,5.0,10.0,82,0.00,,,0.00,meteohub,2013-06-22 07:09:00,
2013-06-22 00:14:00,56.7,51.6,29.98,SSE,158,7.0,12.0,83,0.00,,,0.00,meteohub,2013-06-22 07:14:00,
2013-06-22 00:19:00,56.7,51.8,29.98,SSW,210,4.0,12.0,84,0.00,,,0.00,meteohub,2013-06-22 07:19:00,
2013-06-22 00:24:00,56.5,51.6,29.98,South,191,7.0,12.0,84,0.00,,,0.00,meteohub,2013-06-22 07:24:00,
2013-06-22 00:29:00,55.9,51.4,29.98,SSW,192,5.0,9.0,85,0.00,,,0.00,meteohub,2013-06-22 07:29:00,
2013-06-22 00:34:00,55.8,51.6,29.98,SSW,200,6.0,9.0,86,0.00,,,0.00,meteohub,2013-06-22 07:34:00,
2013-06-22 00:39:00,55.8,51.6,29.98,SSW,195,5.0,9.0,86,0.00,,,0.00,meteohub,2013-06-22 07:39:00,
2013-06-22 00:44:00,55.8,51.6,29.98,South,190,5.0,9.0,86,0.00,,,0.00,meteohub,2013-06-22 07:44:00,
2013-06-22 00:49:00,55.6,51.4,29.97,SSW,192,3.0,7.0,86,0.00,,,0.00,meteohub,2013-06-22 07:49:00,
2013-06-22 00:54:00,55.6,51.8,29.97,SSW,196,3.0,7.0,87,0.00,,,0.00,meteohub,2013-06-22 07:54:00,
2013-06-22 00:59:00,55.6,51.8,29.97,South,190,3.0,8.0,87,0.00,,,0.00,meteohub,2013-06-22 07:59:00,
2013-06-22 01:04:00,55.8,52.0,29.96,South,191,3.0,8.0,87,0.00,,,0.00,meteohub,2013-06-22 08:04:00,
2013-06-22 01:09:00,55.8,52.0,29.96,SSW,201,7.0,8.0,87,0.00,,,0.00,meteohub,2013-06-22 08:09:00,
2013-06-22 01:14:00,55.9,52.2,29.96,SSW,195,7.0,9.0,87,0.00,,,0.00,meteohub,2013-06-22 08:14:00,
2013-06-22 01:19:00,55.8,52.0,29.96,SSW,200,6.0,9.0,87,0.00,,,0.00,meteohub,2013-06-22 08:19:00,
2013-06-22 01:24:00,55.6,51.8,29.96,SSW,205,4.0,9.0,87,0.00,,,0.00,meteohub,2013-06-22 08:24:00,
2013-06-22 01:29:00,55.6,51.8,29.96,South,184,6.0,8.0,87,0.00,,,0.00,meteohub,2013-06-22 08:29:00,
2013-06-22 01:34:00,55.6,51.8,29.96,South,188,4.0,8.0,87,0.00,,,0.00,meteohub,2013-06-22 08:34:00,
2013-06-22 01:39:00,55.4,51.6,29.96,South,189,5.0,8.0,87,0.00,,,0.00,meteohub,2013-06-22 08:39:00,
2013-06-22 01:44:00,55.4,52.0,29.96,South,188,4.0,8.0,88,0.00,,,0.00,meteohub,2013-06-22 08:44:00,
2013-06-22 01:49:00,55.6,52.2,29.96,South,185,2.0,8.0,88,0.00,,,0.00,meteohub,2013-06-22 08:49:00,
2013-06-22 01:54:00,55.6,52.2,29.96,South,178,3.0,8.0,88,0.00,,,0.00,meteohub,2013-06-22 08:54:00,
2013-06-22 01:59:00,55.8,52.3,29.96,South,170,1.0,7.0,88,0.00,,,0.00,meteohub,2013-06-22 08:59:00,
2013-06-22 02:04:00,55.9,52.5,29.96,SSE,166,2.0,7.0,88,0.00,,,0.00,meteohub,2013-06-22 09:04:00,
2013-06-22 02:09:00,55.9,52.5,29.96,SSE,166,5.0,7.0,88,0.00,,,0.00,meteohub,2013-06-22 09:09:00,
2013-06-22 02:15:00,56.1,52.7,29.96,SSE,166,1.0,7.0,88,0.00,,,0.00,meteohub,2013-06-22 09:15:00,
2013-06-22 02:20:00,56.1,52.3,29.96,SSE,167,3.0,7.0,87,0.00,,,0.00,meteohub,2013-06-22 09:20:00,
2013-06-22 02:25:00,56.1,52.3,29.96,SSE,166,2.0,7.0,87,0.00,,,0.00,meteohub,2013-06-22 09:25:00,
2013-06-22 02:30:00,56.1,52.3,29.96,SSE,167,3.0,6.0,87,0.00,,,0.00,meteohub,2013-06-22 09:30:00,
2013-06-22 02:35:00,56.1,52.3,29.96,South,191,5.0,6.0,87,0.00,,,0.00,meteohub,2013-06-22 09:35:00,
2013-06-22 02:40:00,55.9,52.2,29.96,South,191,6.0,8.0,87,0.00,,,0.00,meteohub,2013-06-22 09:40:00,
2013-06-22 02:45:00,55.9,52.2,29.96,South,191,1.0,8.0,87,0.00,,,0.00,meteohub,2013-06-22 09:45:00,
2013-06-22 02:50:00,55.8,52.0,29.96,South,191,3.0,8.0,87,0.00,,,0.00,meteohub,2013-06-22 09:50:00,
2013-06-22 02:55:00,55.8,52.0,29.96,SSW,194,1.0,7.0,87,0.00,,,0.00,meteohub,2013-06-22 09:55:00,
2013-06-22 03:00:00,55.6,51.8,29.96,South,189,6.0,6.0,87,0.00,,,0.00,meteohub,2013-06-22 10:00:00,
2013-06-22 03:05:00,55.6,51.8,29.96,South,189,3.0,6.0,87,0.00,,,0.00,meteohub,2013-06-22 10:05:00,
2013-06-22 03:10:00,55.6,51.8,29.95,South,187,6.0,6.0,87,0.00,,,0.00,meteohub,2013-06-22 10:10:00,
2013-06-22 03:15:00,55.6,51.8,29.96,South,187,3.0,7.0,87,0.00,,,0.00,meteohub,2013-06-22 10:15:00,
2013-06-22 03:20:00,55.4,51.6,29.95,South,187,4.0,7.0,87,0.00,,,0.00,meteohub,2013-06-22 10:20:00,
2013-06-22 03:25:00,55.4,51.6,29.95,South,187,3.0,7.0,87,0.00,,,0.00,meteohub,2013-06-22 10:25:00,
2013-06-22 03:30:00,55.4,52.0,29.95,South,187,2.0,7.0,88,0.00,,,0.00,meteohub,2013-06-22 10:30:00,
2013-06-22 03:35:00,55.4,52.0,29.95,South,186,1.0,5.0,88,0.00,,,0.00,meteohub,2013-06-22 10:35:00,
2013-06-22 03:40:00,55.4,52.0,29.96,South,187,2.0,5.0,88,0.00,,,0.00,meteohub,2013-06-22 10:40:00,
2013-06-22 03:45:00,55.4,52.0,29.96,South,187,0.0,5.0,88,0.00,,,0.00,meteohub,2013-06-22 10:45:00,
2013-06-22 03:50:00,55.4,52.0,29.96,South,187,1.0,3.0,88,0.00,,,0.00,meteohub,2013-06-22 10:50:00,
2013-06-22 03:55:00,55.2,51.8,29.95,South,185,1.0,3.0,88,0.00,,,0.00,meteohub,2013-06-22 10:55:00,
2013-06-22 04:00:00,55.4,52.0,29.95,South,187,2.0,3.0,88,0.00,,,0.00,meteohub,2013-06-22 11:00:00,
2013-06-22 04:05:00,55.6,52.2,29.95,South,187,3.0,4.0,88,0.00,,,0.00,meteohub,2013-06-22 11:05:00,
2013-06-22 04:10:00,55.6,52.2,29.95,North,359,0.0,5.0,88,0.00,,,0.00,meteohub,2013-06-22 11:10:00,
2013-06-22 04:15:00,55.6,52.2,29.95,South,184,0.0,6.0,88,0.00,,,0.00,meteohub,2013-06-22 11:15:00,
2013-06-22 04:20:00,55.6,52.2,29.95,South,185,0.0,6.0,88,0.00,,,0.00,meteohub,2013-06-22 11:20:00,
2013-06-22 04:25:00,55.2,51.8,29.95,South,185,0.0,5.0,88,0.00,,,0.00,meteohub,2013-06-22 11:25:00,
2013-06-22 04:30:00,55.2,51.8,29.94,South,171,3.0,6.0,88,0.00,,,0.00,meteohub,2013-06-22 11:30:00,
2013-06-22 04:35:00,55.0,51.3,29.95,South,169,0.0,6.0,87,0.00,,,0.00,meteohub,2013-06-22 11:35:00,
2013-06-22 04:40:00,55.2,51.4,29.94,South,170,2.0,6.0,87,0.00,,,0.00,meteohub,2013-06-22 11:40:00,
2013-06-22 04:45:00,55.2,51.4,29.94,South,170,1.0,4.0,87,0.00,,,0.00,meteohub,2013-06-22 11:45:00,
2013-06-22 04:51:00,55.2,51.4,29.94,SSE,168,4.0,4.0,87,0.00,,,0.00,meteohub,2013-06-22 11:51:00,
2013-06-22 04:56:00,55.2,51.4,29.94,South,170,3.0,4.0,87,0.00,,,0.00,meteohub,2013-06-22 11:56:00,
2013-06-22 05:01:00,55.0,50.9,29.95,South,170,3.0,4.0,86,0.00,,,0.00,meteohub,2013-06-22 12:01:00,
2013-06-22 05:06:00,55.0,50.9,29.95,South,170,1.0,5.0,86,0.00,,,0.00,meteohub,2013-06-22 12:06:00,
2013-06-22 05:11:00,55.0,51.3,29.95,South,170,2.0,5.0,87,0.00,,,0.00,meteohub,2013-06-22 12:11:00,
2013-06-22 05:16:00,55.2,51.4,29.96,South,170,3.0,5.0,87,0.00,,,0.00,meteohub,2013-06-22 12:16:00,
2013-06-22 05:21:00,55.2,51.4,29.96,South,171,0.0,6.0,87,0.00,,,0.00,meteohub,2013-06-22 12:21:00,
2013-06-22 05:26:00,55.2,51.4,29.95,South,172,4.0,6.0,87,0.00,,,0.00,meteohub,2013-06-22 12:26:00,
2013-06-22 05:31:00,55.2,51.8,29.96,South,170,1.0,6.0,88,0.00,,,0.00,meteohub,2013-06-22 12:31:00,
2013-06-22 05:36:00,55.2,51.8,29.96,South,172,2.0,4.0,88,0.00,,,0.00,meteohub,2013-06-22 12:36:00,
2013-06-22 05:41:00,55.2,51.8,29.96,South,172,3.0,5.0,88,0.00,,,0.00,meteohub,2013-06-22 12:41:00,
2013-06-22 05:46:00,55.0,51.6,29.96,South,171,1.0,5.0,88,0.00,,,0.00,meteohub,2013-06-22 12:46:00,
2013-06-22 05:51:00,54.9,51.4,29.96,South,172,1.0,5.0,88,0.00,,,0.00,meteohub,2013-06-22 12:51:00,
2013-06-22 05:56:00,54.9,51.4,29.96,South,171,2.0,6.0,88,0.00,,,0.00,meteohub,2013-06-22 12:56:00,
2013-06-22 06:01:00,54.9,51.4,29.96,South,170,2.0,6.0,88,0.00,,,0.00,meteohub,2013-06-22 13:01:00,
2013-06-22 06:06:00,54.9,51.4,29.96,South,172,1.0,6.0,88,0.00,,,0.00,meteohub,2013-06-22 13:06:00,
2013-06-22 06:11:00,54.9,51.4,29.96,South,170,2.0,6.0,88,0.00,,,0.00,meteohub,2013-06-22 13:11:00,
2013-06-22 06:16:00,55.0,51.6,29.96,South,169,2.0,6.0,88,0.00,,,0.00,meteohub,2013-06-22 13:16:00,
2013-06-22 06:21:00,55.0,51.6,29.96,South,169,4.0,6.0,88,0.00,,,0.00,meteohub,2013-06-22 13:21:00,
2013-06-22 06:26:00,55.2,52.0,29.96,South,170,2.0,6.0,89,0.00,,,0.00,meteohub,2013-06-22 13:26:00,
2013-06-22 06:31:00,55.6,52.2,29.96,South,170,2.0,5.0,88,0.00,,,0.00,meteohub,2013-06-22 13:31:00,
2013-06-22 06:36:00,55.6,51.8,29.96,South,169,1.0,5.0,87,0.00,,,0.00,meteohub,2013-06-22 13:36:00,
2013-06-22 06:41:00,55.8,52.0,29.96,South,169,1.0,5.0,87,0.00,,,0.00,meteohub,2013-06-22 13:41:00,
2013-06-22 06:46:00,55.9,51.8,29.96,SSE,167,2.0,4.0,86,0.00,,,0.00,meteohub,2013-06-22 13:46:00,
2013-06-22 06:51:00,56.5,52.0,29.96,SSE,162,4.0,7.0,85,0.00,,,0.00,meteohub,2013-06-22 13:51:00,
2013-06-22 06:56:00,56.7,52.2,29.96,SSE,167,5.0,8.0,85,0.00,,,0.00,meteohub,2013-06-22 13:56:00,
2013-06-22 07:01:00,57.0,52.5,29.97,SSE,163,5.0,8.0,85,0.00,,,0.00,meteohub,2013-06-22 14:01:00,
2013-06-22 07:06:00,57.4,52.9,29.97,SSE,149,2.0,9.0,85,0.00,,,0.00,meteohub,2013-06-22 14:06:00,
2013-06-22 07:11:00,57.7,53.2,29.97,SSE,151,4.0,9.0,85,0.00,,,0.00,meteohub,2013-06-22 14:11:00,
2013-06-22 07:17:00,57.9,53.4,29.97,SSE,154,2.0,9.0,85,0.00,,,0.00,meteohub,2013-06-22 14:17:00,
2013-06-22 07:22:00,58.3,53.8,29.97,SSE,165,5.0,8.0,85,0.00,,,0.00,meteohub,2013-06-22 14:22:00,
2013-06-22 07:27:00,58.5,53.6,29.97,SSE,166,4.0,8.0,84,0.00,,,0.00,meteohub,2013-06-22 14:27:00,
2013-06-22 07:32:00,58.6,53.4,29.97,SSE,160,4.0,9.0,83,0.00,,,0.00,meteohub,2013-06-22 14:32:00,
2013-06-22 07:37:00,58.8,53.6,29.97,SSE,160,4.0,9.0,83,0.00,,,0.00,meteohub,2013-06-22 14:37:00,
2013-06-22 07:42:00,58.6,53.4,29.97,South,189,7.0,10.0,83,0.00,,,0.00,meteohub,2013-06-22 14:42:00,
2013-06-22 07:47:00,57.9,52.7,29.98,SSW,194,6.0,10.0,83,0.00,,,0.00,meteohub,2013-06-22 14:47:00,
2013-06-22 07:52:00,57.7,52.9,29.98,SSW,208,7.0,10.0,84,0.00,,,0.00,meteohub,2013-06-22 14:52:00,
2013-06-22 07:57:00,57.6,52.7,29.98,SW,218,9.0,9.0,84,0.00,,,0.00,meteohub,2013-06-22 14:57:00,
2013-06-22 08:02:00,57.6,52.7,29.98,SSW,193,7.0,10.0,84,0.00,,,0.00,meteohub,2013-06-22 15:02:00,
2013-06-22 08:07:00,57.6,52.7,29.98,South,187,7.0,10.0,84,0.00,,,0.00,meteohub,2013-06-22 15:07:00,
2013-06-22 08:12:00,58.1,52.9,29.98,SSW,208,7.0,10.0,83,0.00,,,0.00,meteohub,2013-06-22 15:12:00,
2013-06-22 08:17:00,58.3,53.1,29.98,South,191,6.0,10.0,83,0.00,,,0.00,meteohub,2013-06-22 15:17:00,
2013-06-22 08:22:00,58.5,53.2,29.98,SSW,201,7.0,10.0,83,0.00,,,0.00,meteohub,2013-06-22 15:22:00,
2013-06-22 08:27:00,58.6,53.4,29.98,SSW,197,4.0,10.0,83,0.00,,,0.00,meteohub,2013-06-22 15:27:00,
2013-06-22 08:32:00,58.8,53.4,29.98,South,188,8.0,9.0,82,0.00,,,0.00,meteohub,2013-06-22 15:32:00,
2013-06-22 08:37:00,58.8,53.4,29.98,SSW,210,7.0,10.0,82,0.00,,,0.00,meteohub,2013-06-22 15:37:00,
2013-06-22 08:42:00,59.2,53.6,29.98,SW,214,3.0,10.0,82,0.00,,,0.00,meteohub,2013-06-22 15:42:00,
2013-06-22 08:47:00,59.2,53.6,29.98,SW,215,7.0,10.0,82,0.00,,,0.00,meteohub,2013-06-22 15:47:00,
2013-06-22 08:52:00,59.2,53.6,29.98,SSW,195,6.0,10.0,82,0.00,,,0.00,meteohub,2013-06-22 15:52:00,
2013-06-22 08:57:00,59.5,54.0,29.98,SSW,207,7.0,10.0,82,0.00,,,0.00,meteohub,2013-06-22 15:57:00,
2013-06-22 09:02:00,59.7,54.1,29.98,SSW,195,7.0,11.0,82,0.00,,,0.00,meteohub,2013-06-22 16:02:00,
2013-06-22 09:07:00,59.7,54.1,29.98,SW,214,8.0,11.0,82,0.00,,,0.00,meteohub,2013-06-22 16:07:00,
2013-06-22 09:12:00,60.1,54.5,29.98,SSW,199,6.0,11.0,82,0.00,,,0.00,meteohub,2013-06-22 16:12:00,
2013-06-22 09:17:00,60.3,54.3,29.98,South,191,8.0,10.0,81,0.00,,,0.00,meteohub,2013-06-22 16:17:00,
2013-06-22 09:22:00,60.6,54.7,29.98,SSW,199,7.0,11.0,81,0.00,,,0.00,meteohub,2013-06-22 16:22:00,
2013-06-22 09:28:00,61.0,54.7,29.99,SSW,200,7.0,11.0,80,0.00,,,0.00,meteohub,2013-06-22 16:28:00,
2013-06-22 09:33:00,61.3,55.0,29.98,South,177,9.0,11.0,80,0.00,,,0.00,meteohub,2013-06-22 16:33:00,
2013-06-22 09:38:00,61.5,54.9,29.98,SSW,206,8.0,10.0,79,0.00,,,0.00,meteohub,2013-06-22 16:38:00,
2013-06-22 09:43:00,62.2,55.2,29.99,SSW,203,7.0,10.0,78,0.00,,,0.00,meteohub,2013-06-22 16:43:00,
2013-06-22 09:48:00,62.4,54.3,29.98,SSW,198,8.0,10.0,75,0.00,,,0.00,meteohub,2013-06-22 16:48:00,
2013-06-22 09:53:00,62.4,54.7,29.98,South,183,6.0,9.0,76,0.00,,,0.00,meteohub,2013-06-22 16:53:00,
2013-06-22 09:58:00,62.8,54.7,29.98,South,174,3.0,10.0,75,0.00,,,0.00,meteohub,2013-06-22 16:58:00,
2013-06-22 10:03:00,63.0,54.9,29.98,SSW,207,7.0,12.0,75,0.00,,,0.00,meteohub,2013-06-22 17:03:00,
2013-06-22 10:08:00,62.8,54.7,29.98,South,174,6.0,12.0,75,0.00,,,0.00,meteohub,2013-06-22 17:08:00,
2013-06-22 10:13:00,63.1,55.0,29.98,South,179,4.0,12.0,75,0.00,,,0.00,meteohub,2013-06-22 17:13:00,
2013-06-22 10:18:00,63.1,54.3,29.98,South,182,2.0,11.0,73,0.00,,,0.00,meteohub,2013-06-22 17:18:00,
2013-06-22 10:23:00,63.1,54.0,29.98,SSW,197,5.0,11.0,72,0.00,,,0.00,meteohub,2013-06-22 17:23:00,
2013-06-22 10:28:00,63.0,53.4,29.98,South,190,5.0,11.0,71,0.00,,,0.00,meteohub,2013-06-22 17:28:00,
2013-06-22 10:33:00,63.1,53.2,29.98,SSW,197,5.0,10.0,70,0.00,,,0.00,meteohub,2013-06-22 17:33:00,
2013-06-22 10:38:00,63.3,53.4,29.98,South,182,4.0,10.0,70,0.00,,,0.00,meteohub,2013-06-22 17:38:00,
2013-06-22 10:43:00,63.7,53.2,29.98,South,185,4.0,10.0,69,0.00,,,0.00,meteohub,2013-06-22 17:43:00,
2013-06-22 10:48:00,64.0,53.2,29.97,SSW,204,7.0,10.0,68,0.00,,,0.00,meteohub,2013-06-22 17:48:00,
2013-06-22 10:53:00,64.0,53.6,29.97,SSW,208,7.0,10.0,69,0.00,,,0.00,meteohub,2013-06-22 17:53:00,
2013-06-22 10:58:00,64.6,54.1,29.97,SSW,208,6.0,10.0,69,0.00,,,0.00,meteohub,2013-06-22 17:58:00,
2013-06-22 11:03:00,64.8,54.0,29.97,SSW,204,7.0,10.0,68,0.00,,,0.00,meteohub,2013-06-22 18:03:00,
2013-06-22 11:08:00,64.9,53.8,29.97,SSW,201,6.0,9.0,67,0.00,,,0.00,meteohub,2013-06-22 18:08:00,
2013-06-22 11:13:00,65.1,53.1,29.97,South,184,5.0,9.0,65,0.00,,,0.00,meteohub,2013-06-22 18:13:00,
2013-06-22 11:18:00,64.9,52.9,29.97,SSW,193,7.0,9.0,65,0.00,,,0.00,meteohub,2013-06-22 18:18:00,
2013-06-22 11:23:00,65.1,52.7,29.97,South,181,8.0,9.0,64,0.00,,,0.00,meteohub,2013-06-22 18:23:00,
2013-06-22 11:28:00,65.7,51.8,29.97,South,182,6.0,10.0,61,0.00,,,0.00,meteohub,2013-06-22 18:28:00,
2013-06-22 11:33:00,66.0,52.2,29.97,South,179,7.0,11.0,61,0.00,,,0.00,meteohub,2013-06-22 18:33:00,
2013-06-22 11:38:00,65.8,52.5,29.97,South,177,11.0,11.0,62,0.00,,,0.00,meteohub,2013-06-22 18:38:00,
2013-06-22 11:43:00,65.7,53.2,29.97,SSW,197,7.0,14.0,64,0.00,,,0.00,meteohub,2013-06-22 18:43:00,
2013-06-22 11:48:00,65.3,53.2,29.97,SSW,206,6.0,14.0,65,0.00,,,0.00,meteohub,2013-06-22 18:48:00,
2013-06-22 11:53:00,64.9,53.2,29.97,SSW,202,8.0,14.0,66,0.00,,,0.00,meteohub,2013-06-22 18:53:00,
2013-06-22 11:58:00,64.8,53.6,29.97,South,185,7.0,13.0,67,0.00,,,0.00,meteohub,2013-06-22 18:58:00,
2013-06-22 12:03:00,63.9,53.1,29.97,SSW,193,5.0,14.0,68,0.00,,,0.00,meteohub,2013-06-22 19:03:00,
2013-06-22 12:08:00,63.7,53.2,29.97,SSE,162,8.0,14.0,69,0.00,,,0.00,meteohub,2013-06-22 19:08:00,
2013-06-22 12:14:00,63.0,53.1,29.97,SSW,197,7.0,15.0,70,0.00,,,0.00,meteohub,2013-06-22 19:14:00,
2013-06-22 12:19:00,63.1,53.6,29.97,SSW,208,11.0,15.0,71,0.00,,,0.00,meteohub,2013-06-22 19:19:00,
2013-06-22 12:24:00,63.3,53.4,29.97,SSW,207,15.0,16.0,70,0.00,,,0.00,meteohub,2013-06-22 19:24:00,
2013-06-22 12:29:00,63.0,53.1,29.96,South,183,14.0,16.0,70,0.00,,,0.00,meteohub,2013-06-22 19:29:00,
2013-06-22 12:34:00,63.1,52.9,29.97,SSW,201,12.0,17.0,69,0.00,,,0.00,meteohub,2013-06-22 19:34:00,
2013-06-22 12:39:00,63.5,53.1,29.96,SSW,201,12.0,17.0,69,0.00,,,0.00,meteohub,2013-06-22 19:39:00,
2013-06-22 12:44:00,63.5,53.1,29.96,SSE,165,15.0,17.0,69,0.00,,,0.00,meteohub,2013-06-22 19:44:00,
2013-06-22 12:49:00,63.3,53.4,29.96,SSE,164,8.0,16.0,70,0.00,,,0.00,meteohub,2013-06-22 19:49:00,
2013-06-22 12:54:00,63.7,53.2,29.96,SSW,197,7.0,16.0,69,0.00,,,0.00,meteohub,2013-06-22 19:54:00,
2013-06-22 12:59:00,64.0,53.6,29.96,SSW,198,12.0,16.0,69,0.00,,,0.00,meteohub,2013-06-22 19:59:00,
2013-06-22 13:04:00,64.6,54.1,29.96,SSE,158,7.0,15.0,69,0.00,,,0.00,meteohub,2013-06-22 20:04:00,
2013-06-22 13:09:00,64.2,53.8,29.96,SSE,161,8.0,14.0,69,0.00,,,0.00,meteohub,2013-06-22 20:09:00,
2013-06-22 13:14:00,64.8,54.3,29.96,SSE,152,3.0,15.0,69,0.00,,,0.00,meteohub,2013-06-22 20:14:00,
2013-06-22 13:19:00,64.4,54.0,29.96,SSE,168,10.0,15.0,69,0.00,,,0.00,meteohub,2013-06-22 20:19:00,
2013-06-22 13:24:00,63.1,53.6,29.96,SSE,154,13.0,16.0,71,0.00,,,0.00,meteohub,2013-06-22 20:24:00,
2013-06-22 13:29:00,62.2,53.8,29.96,SE,139,8.0,17.0,74,0.00,,,0.00,meteohub,2013-06-22 20:29:00,
2013-06-22 13:34:00,62.1,54.0,29.96,SE,127,10.0,17.0,75,0.00,,,0.00,meteohub,2013-06-22 20:34:00,
2013-06-22 13:39:00,62.2,53.8,29.96,SSE,152,11.0,17.0,74,0.00,,,0.00,meteohub,2013-06-22 20:39:00,
2013-06-22 13:44:00,61.9,53.8,29.96,SSE,152,14.0,17.0,75,0.00,,,0.00,meteohub,2013-06-22 20:44:00,
2013-06-22 13:49:00,61.9,53.8,29.96,SSE,160,11.0,17.0,75,0.00,,,0.00,meteohub,2013-06-22 20:49:00,
2013-06-22 13:54:00,61.2,53.6,29.95,SSW,198,8.0,16.0,76,0.00,,,0.00,meteohub,2013-06-22 20:54:00,
2013-06-22 13:59:00,60.8,53.2,29.95,SSE,163,10.0,17.0,76,0.00,,,0.00,meteohub,2013-06-22 20:59:00,
2013-06-22 14:04:00,60.4,53.2,29.95,South,179,6.0,17.0,77,0.00,,,0.00,meteohub,2013-06-22 21:04:00,
2013-06-22 14:09:00,60.3,53.4,29.95,SSW,196,10.0,17.0,78,0.00,,,0.00,meteohub,2013-06-22 21:09:00,
2013-06-22 14:14:00,60.4,53.6,29.95,SSE,161,9.0,18.0,78,0.00,,,0.00,meteohub,2013-06-22 21:14:00,
2013-06-22 14:20:00,60.6,53.8,29.95,SSE,165,9.0,18.0,78,0.00,,,0.00,meteohub,2013-06-22 21:20:00,
2013-06-22 14:25:00,60.6,53.4,29.95,South,177,14.0,18.0,77,0.00,,,0.00,meteohub,2013-06-22 21:25:00,
2013-06-22 14:30:00,59.7,52.9,29.94,SSE,160,12.0,18.0,78,0.00,,,0.00,meteohub,2013-06-22 21:30:00,
2013-06-22 14:35:00,59.0,52.9,29.94,SSE,166,16.0,19.0,80,0.00,,,0.00,meteohub,2013-06-22 21:35:00,
2013-06-22 14:40:00,59.9,53.1,29.94,SSW,197,12.0,19.0,78,0.00,,,0.00,meteohub,2013-06-22 21:40:00,
2013-06-22 14:45:00,59.7,52.9,29.94,South,176,12.0,20.0,78,0.00,,,0.00,meteohub,2013-06-22 21:45:00,
2013-06-22 14:50:00,59.9,53.1,29.94,South,170,11.0,22.0,78,0.00,,,0.00,meteohub,2013-06-22 21:50:00,
2013-06-22 14:55:00,60.6,53.4,29.94,SSW,204,16.0,22.0,77,0.00,,,0.00,meteohub,2013-06-22 21:55:00,
2013-06-22 15:00:00,60.8,53.2,29.94,South,189,18.0,22.0,76,0.00,,,0.00,meteohub,2013-06-22 22:00:00,
2013-06-22 15:05:00,60.1,52.9,29.94,South,174,13.0,21.0,77,0.00,,,0.00,meteohub,2013-06-22 22:05:00,
2013-06-22 15:10:00,59.9,53.1,29.94,South,169,13.0,23.0,78,0.00,,,0.00,meteohub,2013-06-22 22:10:00,
2013-06-22 15:15:00,60.4,53.2,29.94,SSE,161,12.0,24.0,77,0.00,,,0.00,meteohub,2013-06-22 22:15:00,
2013-06-22 15:20:00,60.6,53.4,29.94,SE,140,12.0,24.0,77,0.00,,,0.00,meteohub,2013-06-22 22:20:00,
2013-06-22 15:25:00,60.3,53.1,29.94,South,177,17.0,24.0,77,0.00,,,0.00,meteohub,2013-06-22 22:25:00,
2013-06-22 15:30:00,59.7,53.6,29.94,South,180,18.0,22.0,80,0.00,,,0.00,meteohub,2013-06-22 22:30:00,
2013-06-22 15:35:00,60.1,53.2,29.94,SSW,197,14.0,23.0,78,0.00,,,0.00,meteohub,2013-06-22 22:35:00,
2013-06-22 15:40:00,61.0,54.1,29.93,SE,129,9.0,23.0,78,0.00,,,0.00,meteohub,2013-06-22 22:40:00,
2013-06-22 15:45:00,61.0,53.8,29.93,SSE,156,17.0,23.0,77,0.00,,,0.00,meteohub,2013-06-22 22:45:00,
2013-06-22 15:50:00,60.8,53.6,29.94,SE,141,10.0,23.0,77,0.00,,,0.00,meteohub,2013-06-22 22:50:00,
2013-06-22 15:55:00,61.2,54.0,29.93,SE,146,9.0,21.0,77,0.00,,,0.00,meteohub,2013-06-22 22:55:00,
2013-06-22 16:00:00,61.0,53.4,29.93,SE,145,14.0,18.0,76,0.00,,,0.00,meteohub,2013-06-22 23:00:00,
2013-06-22 16:05:00,61.2,54.0,29.93,SE,127,8.0,19.0,77,0.00,,,0.00,meteohub,2013-06-22 23:05:00,
2013-06-22 16:10:00,61.5,54.3,29.93,ESE,109,13.0,19.0,77,0.00,,,0.00,meteohub,2013-06-22 23:10:00,
2013-06-22 16:15:00,62.2,54.1,29.92,SSE,160,11.0,19.0,75,0.00,,,0.00,meteohub,2013-06-22 23:15:00,
2013-06-22 16:20:00,63.1,54.3,29.92,SSE,158,13.0,18.0,73,0.00,,,0.00,meteohub,2013-06-22 23:20:00,
2013-06-22 16:25:00,63.1,54.0,29.92,ESE,121,14.0,17.0,72,0.00,,,0.00,meteohub,2013-06-22 23:25:00,
2013-06-22 16:30:00,63.5,54.0,29.91,SSE,160,14.0,17.0,71,0.00,,,0.00,meteohub,2013-06-22 23:30:00,
2013-06-22 16:35:00,63.3,54.1,29.91,SE,132,9.0,17.0,72,0.00,,,0.00,meteohub,2013-06-22 23:35:00,
2013-06-22 16:40:00,64.0,55.2,29.91,SSE,156,9.0,16.0,73,0.00,,,0.00,meteohub,2013-06-22 23:40:00,
2013-06-22 16:45:00,64.8,55.6,29.91,South,178,8.0,16.0,72,0.00,,,0.00,meteohub,2013-06-22 23:45:00,
2013-06-22 16:50:00,64.9,55.8,29.91,SE,146,9.0,16.0,72,0.00,,,0.00,meteohub,2013-06-22 23:50:00,
2013-06-22 16:55:00,65.1,55.0,29.91,South,172,11.0,16.0,70,0.00,,,0.00,meteohub,2013-06-22 23:55:00,
2013-06-22 17:00:00,65.7,55.2,29.91,South,181,7.0,16.0,69,0.00,,,0.00,meteohub,2013-06-23 00:00:00,
2013-06-22 17:05:00,66.9,55.6,29.91,South,187,9.0,15.0,67,0.00,,,0.00,meteohub,2013-06-23 00:05:00,
2013-06-22 17:11:00,67.3,55.6,29.91,SSE,167,7.0,13.0,66,0.00,,,0.00,meteohub,2013-06-23 00:11:00,
2013-06-22 17:16:00,66.6,54.9,29.90,South,174,9.0,13.0,66,0.00,,,0.00,meteohub,2013-06-23 00:16:00,
2013-06-22 17:21:00,66.4,55.9,29.90,SSE,162,6.0,15.0,69,0.00,,,0.00,meteohub,2013-06-23 00:21:00,
2013-06-22 17:26:00,66.7,56.7,29.90,SSW,198,8.0,15.0,70,0.00,,,0.00,meteohub,2013-06-23 00:26:00,
2013-06-22 17:31:00,66.9,55.6,29.90,SSW,195,8.0,13.0,67,0.00,,,0.00,meteohub,2013-06-23 00:31:00,
2013-06-22 17:36:00,66.9,55.9,29.90,SSW,192,7.0,15.0,68,0.00,,,0.00,meteohub,2013-06-23 00:36:00,
2013-06-22 17:41:00,67.3,55.6,29.89,South,174,10.0,15.0,66,0.00,,,0.00,meteohub,2013-06-23 00:41:00,
2013-06-22 17:46:00,67.5,55.8,29.89,SE,137,8.0,15.0,66,0.00,,,0.00,meteohub,2013-06-23 00:46:00,
2013-06-22 17:51:00,68.2,55.9,29.89,South,174,5.0,13.0,65,0.00,,,0.00,meteohub,2013-06-23 00:51:00,
2013-06-22 17:56:00,68.2,55.9,29.89,SSW,195,6.0,13.0,65,0.00,,,0.00,meteohub,2013-06-23 00:56:00,
2013-06-22 18:01:00,68.0,55.4,29.89,South,190,6.0,13.0,64,0.00,,,0.00,meteohub,2013-06-23 01:01:00,
2013-06-22 18:06:00,67.6,55.9,29.89,SSE,155,7.0,13.0,66,0.00,,,0.00,meteohub,2013-06-23 01:06:00,
2013-06-22 18:11:00,67.8,55.6,29.89,South,170,6.0,11.0,65,0.00,,,0.00,meteohub,2013-06-23 01:11:00,
2013-06-22 18:16:00,67.6,55.0,29.89,SSE,166,5.0,12.0,64,0.00,,,0.00,meteohub,2013-06-23 01:16:00,
2013-06-22 18:21:00,68.0,54.5,29.89,SSE,155,4.0,12.0,62,0.00,,,0.00,meteohub,2013-06-23 01:21:00,
2013-06-22 18:26:00,67.8,55.6,29.89,South,169,5.0,12.0,65,0.00,,,0.00,meteohub,2013-06-23 01:26:00,
2013-06-22 18:31:00,67.5,55.8,29.89,South,174,8.0,11.0,66,0.00,,,0.00,meteohub,2013-06-23 01:31:00,
2013-06-22 18:36:00,66.7,55.4,29.89,SSE,161,5.0,11.0,67,0.00,,,0.00,meteohub,2013-06-23 01:36:00,
2013-06-22 18:41:00,66.7,55.0,29.89,South,181,6.0,12.0,66,0.00,,,0.00,meteohub,2013-06-23 01:41:00,
2013-06-22 18:46:00,66.6,54.9,29.89,South,170,10.0,12.0,66,0.00,,,0.00,meteohub,2013-06-23 01:46:00,
2013-06-22 18:51:00,66.6,55.2,29.89,South,179,7.0,12.0,67,0.00,,,0.00,meteohub,2013-06-23 01:51:00,
2013-06-22 18:56:00,66.7,55.0,29.89,South,186,9.0,12.0,66,0.00,,,0.00,meteohub,2013-06-23 01:56:00,
2013-06-22 19:01:00,66.6,55.6,29.88,SSW,196,6.0,11.0,68,0.00,,,0.00,meteohub,2013-06-23 02:01:00,
2013-06-22 19:06:00,66.0,55.6,29.89,SSW,204,8.0,12.0,69,0.00,,,0.00,meteohub,2013-06-23 02:06:00,
2013-06-22 19:11:00,65.7,55.6,29.88,SSW,209,8.0,12.0,70,0.00,,,0.00,meteohub,2013-06-23 02:11:00,
2013-06-22 19:16:00,64.6,55.4,29.89,SSW,194,9.0,13.0,72,0.00,,,0.00,meteohub,2013-06-23 02:16:00,
2013-06-22 19:21:00,64.2,55.4,29.89,South,181,7.0,13.0,73,0.00,,,0.00,meteohub,2013-06-23 02:21:00,
2013-06-22 19:26:00,64.2,55.4,29.89,South,170,6.0,13.0,73,0.00,,,0.00,meteohub,2013-06-23 02:26:00,
2013-06-22 19:32:00,64.6,55.0,29.88,South,171,8.0,10.0,71,0.00,,,0.00,meteohub,2013-06-23 02:32:00,
2013-06-22 19:37:00,64.2,55.0,29.88,SSE,168,5.0,10.0,72,0.00,,,0.00,meteohub,2013-06-23 02:37:00,
2013-06-22 19:42:00,64.0,55.6,29.89,South,191,6.0,10.0,74,0.00,,,0.00,meteohub,2013-06-23 02:42:00,
2013-06-22 19:47:00,63.9,55.4,29.89,South,178,7.0,10.0,74,0.00,,,0.00,meteohub,2013-06-23 02:47:00,
2013-06-22 19:52:00,63.5,55.4,29.89,South,191,1.0,11.0,75,0.00,,,0.00,meteohub,2013-06-23 02:52:00,
2013-06-22 19:57:00,63.1,55.0,29.89,South,180,4.0,11.0,75,0.00,,,0.00,meteohub,2013-06-23 02:57:00,
2013-06-22 20:02:00,63.0,55.2,29.89,South,169,2.0,11.0,76,0.00,,,0.00,meteohub,2013-06-23 03:02:00,
2013-06-22 20:07:00,62.8,55.0,29.89,SSE,164,3.0,11.0,76,0.00,,,0.00,meteohub,2013-06-23 03:07:00,
2013-06-22 20:12:00,62.2,54.9,29.89,South,174,8.0,11.0,77,0.00,,,0.00,meteohub,2013-06-23 03:12:00,
2013-06-22 20:17:00,62.1,55.0,29.89,SSE,168,6.0,9.0,78,0.00,,,0.00,meteohub,2013-06-23 03:17:00,
2013-06-22 20:22:00,61.5,55.2,29.89,SSE,162,7.0,10.0,80,0.00,,,0.00,meteohub,2013-06-23 03:22:00,
2013-06-22 20:27:00,61.2,55.2,29.89,SSE,164,4.0,10.0,81,0.00,,,0.00,meteohub,2013-06-23 03:27:00,
2013-06-22 20:32:00,60.6,55.0,29.89,SSW,200,6.0,10.0,82,0.00,,,0.00,meteohub,2013-06-23 03:32:00,
2013-06-22 20:37:00,60.4,55.2,29.90,South,172,6.0,11.0,83,0.00,,,0.00,meteohub,2013-06-23 03:37:00,
2013-06-22 20:42:00,60.3,55.0,29.90,SSW,206,4.0,11.0,83,0.00,,,0.00,meteohub,2013-06-23 03:42:00,
2013-06-22 20:47:00,59.9,54.7,29.90,SSE,160,5.0,10.0,83,0.00,,,0.00,meteohub,2013-06-23 03:47:00,
2013-06-22 20:52:00,59.5,54.7,29.90,SE,137,10.0,10.0,84,0.00,,,0.00,meteohub,2013-06-23 03:52:00,
2013-06-22 20:57:00,59.4,54.9,29.90,South,181,3.0,10.0,85,0.00,,,0.00,meteohub,2013-06-23 03:57:00,
2013-06-22 21:01:00,59.2,54.7,29.90,SSE,159,3.0,10.0,85,0.00,,,0.00,meteohub,2013-06-23 04:01:00,
2013-06-22 21:02:00,59.2,54.7,29.90,SSE,157,4.0,10.0,85,0.00,,,0.00,meteohub,2013-06-23 04:02:00,
2013-06-22 21:03:00,59.2,54.7,29.90,SSE,158,4.0,10.0,85,0.00,,,0.00,meteohub,2013-06-23 04:03:00,
2013-06-22 21:08:00,59.2,55.0,29.90,SSW,206,4.0,10.0,86,0.00,,,0.00,meteohub,2013-06-23 04:08:00,
2013-06-22 21:13:00,59.2,55.0,29.90,SSE,162,3.0,10.0,86,0.00,,,0.00,meteohub,2013-06-23 04:13:00,
2013-06-22 21:18:00,59.2,55.0,29.91,SSE,159,7.0,9.0,86,0.00,,,0.00,meteohub,2013-06-23 04:18:00,
2013-06-22 21:23:00,59.0,54.9,29.90,SE,141,5.0,8.0,86,0.00,,,0.00,meteohub,2013-06-23 04:23:00,
2013-06-22 21:28:00,58.8,54.7,29.91,SSW,199,6.0,8.0,86,0.00,,,0.00,meteohub,2013-06-23 04:28:00,
2013-06-22 21:33:00,58.6,54.5,29.91,SSW,207,4.0,8.0,86,0.00,,,0.00,meteohub,2013-06-23 04:33:00,
2013-06-22 21:38:00,58.5,54.7,29.91,South,189,5.0,9.0,87,0.00,,,0.00,meteohub,2013-06-23 04:38:00,
2013-06-22 21:43:00,58.5,54.7,29.91,South,184,5.0,9.0,87,0.00,,,0.00,meteohub,2013-06-23 04:43:00,
2013-06-22 21:48:00,58.6,54.9,29.91,SSW,203,7.0,9.0,87,0.00,,,0.00,meteohub,2013-06-23 04:48:00,
2013-06-22 21:53:00,58.6,54.9,29.91,SSW,201,5.0,9.0,87,0.00,,,0.00,meteohub,2013-06-23 04:53:00,
2013-06-22 21:58:00,58.6,54.9,29.92,SSE,163,6.0,9.0,87,0.00,,,0.00,meteohub,2013-06-23 04:58:00,
2013-06-22 22:03:00,58.6,54.5,29.92,WSW,243,8.0,10.0,86,0.00,,,0.00,meteohub,2013-06-23 05:03:00,
2013-06-22 22:08:00,58.6,54.5,29.92,SSE,167,8.0,10.0,86,0.00,,,0.00,meteohub,2013-06-23 05:08:00,
2013-06-22 22:13:00,58.5,54.3,29.92,SW,228,3.0,10.0,86,0.00,,,0.00,meteohub,2013-06-23 05:13:00,
2013-06-22 22:18:00,58.5,54.7,29.92,SSW,194,6.0,9.0,87,0.00,,,0.00,meteohub,2013-06-23 05:18:00,
2013-06-22 22:23:00,58.5,54.7,29.92,WSW,247,9.0,9.0,87,0.00,,,0.00,meteohub,2013-06-23 05:23:00,
2013-06-22 22:28:00,58.3,54.5,29.92,South,181,2.0,9.0,87,0.00,,,0.00,meteohub,2013-06-23 05:28:00,
2013-06-22 22:33:00,58.3,54.7,29.92,SSW,204,3.0,9.0,88,0.00,,,0.00,meteohub,2013-06-23 05:33:00,
2013-06-22 22:38:00,58.3,54.5,29.92,SSE,161,10.0,10.0,87,0.00,,,0.00,meteohub,2013-06-23 05:38:00,
2013-06-22 22:43:00,58.3,54.5,29.92,South,175,2.0,11.0,87,0.00,,,0.00,meteohub,2013-06-23 05:43:00,
2013-06-22 22:48:00,58.3,54.5,29.92,SW,217,7.0,11.0,87,0.00,,,0.00,meteohub,2013-06-23 05:48:00,
2013-06-22 22:53:00,57.9,54.1,29.91,South,185,12.0,12.0,87,0.00,,,0.00,meteohub,2013-06-23 05:53:00,
2013-06-22 22:58:00,57.6,54.0,29.92,SSW,193,6.0,12.0,88,0.00,,,0.00,meteohub,2013-06-23 05:58:00,
2013-06-22 23:01:00,57.6,54.3,29.91,South,172,9.0,12.0,89,0.00,,,0.00,meteohub,2013-06-23 06:01:00,
2013-06-22 23:06:00,57.4,54.1,29.91,SSW,192,5.0,12.0,89,0.00,,,0.00,meteohub,2013-06-23 06:06:00,
2013-06-22 23:11:00,57.4,54.1,29.91,SW,221,8.0,12.0,89,0.00,,,0.00,meteohub,2013-06-23 06:11:00,
2013-06-22 23:16:00,57.0,53.8,29.91,SSE,168,9.0,12.0,89,0.00,,,0.00,meteohub,2013-06-23 06:16:00,
2013-06-22 23:21:00,56.8,53.6,29.91,SSW,200,7.0,14.0,89,0.00,,,0.00,meteohub,2013-06-23 06:21:00,
2013-06-22 23:26:00,57.0,54.1,29.91,South,185,8.0,14.0,90,0.00,,,0.00,meteohub,2013-06-23 06:26:00,
2013-06-22 23:31:00,57.4,54.5,29.91,SSW,200,7.0,13.0,90,0.00,,,0.00,meteohub,2013-06-23 06:31:00,
2013-06-22 23:36:00,57.4,54.1,29.91,SW,214,11.0,12.0,89,0.00,,,0.00,meteohub,2013-06-23 06:36:00,
2013-06-22 23:41:00,57.2,54.0,29.91,SSW,208,11.0,12.0,89,0.00,,,0.00,meteohub,2013-06-23 06:41:00,
2013-06-22 23:46:00,56.8,54.0,29.91,South,185,5.0,13.0,90,0.00,,,0.00,meteohub,2013-06-23 06:46:00,
2013-06-22 23:52:00,56.7,53.8,29.91,SSE,166,4.0,13.0,90,0.00,,,0.00,meteohub,2013-06-23 06:52:00,
2013-06-22 23:57:00,56.8,54.0,29.91,South,179,4.0,13.0,90,0.00,,,0.00,meteohub,2013-06-23 06:57:00,